PS52 weather

Alberter Farms Airport
Johnstown, Pennsylvania, United States

Public forecast

Using degrees Fahrenheit for public forecast. Weather courtesy of forecast.io.

Closest aviation weather report (METAR) to Alberter Farms Airport

Closest report is John Murtha Johnstown Cambria County Airport, 7.3 nm (13.5 km) N. Retrieved 2020/02/24 02:54 UTC (20 minutes ago):

KJST 240254Z AUTO 22007KT 10SM OVC060 06/M12 A3003 RMK AO2 SLP182 T00561117 55000

Closest aviation forecast (TAF) to Alberter Farms Airport

Closest forecast is John Murtha Johnstown Cambria County Airport, 7.3 nm (13.5 km) N. Retrieved 2020-02-24 00:22 UTC (3 hours ago):

TAF KJST 232320Z 2400/2424 22008KT P6SM OVC250 FM241800 22006KT P6SM OVC050